createdAt,value
2023-01-15T00:00:57.306Z,6.849365
2023-01-15T00:04:22.995Z,6.90979
2023-01-15T00:07:48.651Z,6.90979
2023-01-15T00:11:14.834Z,6.889648
2023-01-15T00:14:40.771Z,6.940002
2023-01-15T00:18:06.427Z,6.940002
2023-01-15T00:21:34.693Z,6.919861
2023-01-15T00:25:00.661Z,6.970215
2023-01-15T00:28:27.668Z,6.990356
2023-01-15T00:31:55.350Z,7.070923
2023-01-15T00:35:21.675Z,7.070923
2023-01-15T00:38:49.520Z,7.101135
2023-01-15T00:42:17.641Z,7.131348
2023-01-15T00:45:44.255Z,7.171631
2023-01-15T00:49:11.402Z,7.16156
2023-01-15T00:52:38.330Z,7.232056
2023-01-15T00:56:06.952Z,7.242126
2023-01-15T00:59:34.182Z,7.302551
2023-01-15T01:03:00.049Z,7.302551
2023-01-15T01:06:28.708Z,7.322693
2023-01-15T01:09:55.709Z,7.352905
2023-01-15T01:13:22.523Z,7.433472
2023-01-15T01:16:48.623Z,7.433472
2023-01-15T01:20:14.666Z,7.433472
2023-01-15T01:23:41.074Z,7.453613
2023-01-15T01:27:07.406Z,7.483826
2023-01-15T01:30:33.817Z,7.483826
2023-01-15T01:34:00.634Z,7.503967
2023-01-15T01:37:27.996Z,7.53418
2023-01-15T01:40:53.889Z,7.53418
2023-01-15T01:44:20.139Z,7.584534
2023-01-15T01:47:46.054Z,7.574463
2023-01-15T01:51:11.932Z,7.554321
2023-01-15T01:54:37.974Z,7.554321
2023-01-15T01:58:04.019Z,7.604675
2023-01-15T02:01:29.794Z,7.644958
2023-01-15T02:04:55.429Z,7.644958
2023-01-15T02:08:21.169Z,7.634888
2023-01-15T02:11:46.919Z,7.604675
2023-01-15T02:15:12.923Z,7.604675
2023-01-15T02:18:38.831Z,7.644958
2023-01-15T02:22:04.568Z,7.675171
2023-01-15T02:25:30.793Z,7.675171
2023-01-15T02:28:56.876Z,7.715454
2023-01-15T02:32:22.499Z,7.685242
2023-01-15T02:35:48.192Z,7.685242
2023-01-15T02:39:13.944Z,7.634888
2023-01-15T02:42:39.400Z,7.644958
2023-01-15T02:46:05.159Z,7.614746
2023-01-15T02:49:31.031Z,7.675171
2023-01-15T02:52:56.514Z,7.644958
2023-01-15T02:56:22.213Z,7.705383
2023-01-15T02:59:48.403Z,7.644958
2023-01-15T03:03:14.066Z,7.675171
2023-01-15T03:06:39.660Z,7.614746
2023-01-15T03:10:05.475Z,7.644958
2023-01-15T03:13:31.484Z,7.614746
2023-01-15T03:16:57.103Z,7.644958
2023-01-15T03:20:22.982Z,7.644958
2023-01-15T03:23:48.687Z,7.685242
2023-01-15T03:27:14.624Z,7.685242
2023-01-15T03:30:40.635Z,7.705383
2023-01-15T03:34:06.185Z,7.735596
2023-01-15T03:37:32.099Z,7.735596
2023-01-15T03:40:57.761Z,7.816162
2023-01-15T03:44:23.269Z,7.826233
2023-01-15T03:47:48.955Z,7.856445
2023-01-15T03:51:14.639Z,7.866516
2023-01-15T03:54:40.423Z,7.846375
2023-01-15T03:58:06.383Z,7.796021
2023-01-15T04:01:32.459Z,7.735596
2023-01-15T04:04:58.100Z,7.745667
2023-01-15T04:08:23.621Z,7.846375
2023-01-15T04:11:49.891Z,7.796021
2023-01-15T04:15:16.706Z,7.866516
2023-01-15T04:18:42.569Z,7.866516
2023-01-15T04:22:08.131Z,7.926941
2023-01-15T04:25:33.998Z,7.967224
2023-01-15T04:28:59.800Z,8.007507
2023-01-15T04:32:25.439Z,8.007507
2023-01-15T04:35:51.103Z,8.007507
2023-01-15T04:39:16.821Z,8.03772
2023-01-15T04:42:42.830Z,8.03772
2023-01-15T04:46:08.885Z,8.017578
2023-01-15T04:49:34.955Z,8.03772
2023-01-15T04:53:00.538Z,8.067932
2023-01-15T04:56:26.662Z,8.078003
2023-01-15T04:59:52.465Z,8.067932
2023-01-15T05:03:18.119Z,8.098145
2023-01-15T05:06:45.173Z,8.118286
2023-01-15T05:10:11.146Z,8.118286
2023-01-15T05:13:36.766Z,8.118286
2023-01-15T05:17:02.869Z,8.148499
2023-01-15T05:20:28.606Z,8.148499
2023-01-15T05:23:54.097Z,8.158569
2023-01-15T05:27:19.579Z,8.047791
2023-01-15T05:30:45.048Z,7.796021
2023-01-15T05:34:10.509Z,7.554321
2023-01-15T05:37:35.880Z,7.433472
2023-01-15T05:41:01.375Z,7.393188
2023-01-15T05:44:26.883Z,7.312622
2023-01-15T05:47:52.184Z,7.302551
2023-01-15T05:51:17.602Z,7.312622
2023-01-15T05:54:42.968Z,7.252197
2023-01-15T05:58:08.726Z,7.242126
2023-01-15T06:01:34.324Z,7.232056
2023-01-15T06:04:59.811Z,7.201843
2023-01-15T06:08:25.221Z,7.121277
2023-01-15T06:11:50.700Z,7.020569
2023-01-15T06:15:16.357Z,6.90979
2023-01-15T06:18:41.892Z,6.738586
2023-01-15T06:22:09.116Z,6.53717
2023-01-15T06:25:33.030Z,6.325684
2023-01-15T06:28:58.671Z,6.214905
2023-01-15T06:32:24.360Z,6.124268
2023-01-15T06:35:49.726Z,5.993347
2023-01-15T06:39:15.113Z,5.90271
2023-01-15T06:42:40.543Z,5.822144
2023-01-15T06:46:05.940Z,5.721436
2023-01-15T06:49:31.577Z,5.761719
2023-01-15T06:52:57.242Z,5.761719
2023-01-15T06:56:22.706Z,5.721436
2023-01-15T06:59:48.293Z,5.741577
2023-01-15T07:03:14.091Z,5.681152
2023-01-15T07:06:39.639Z,5.711365
2023-01-15T07:10:05.545Z,5.640869
2023-01-15T07:13:31.290Z,5.671082
2023-01-15T07:16:57.849Z,5.65094
2023-01-15T07:20:25.464Z,5.630798
2023-01-15T07:23:51.434Z,5.671082
2023-01-15T07:27:17.186Z,5.640869
2023-01-15T07:30:54.084Z,5.640869
2023-01-15T07:34:19.850Z,5.580444
2023-01-15T07:37:45.746Z,5.570374
2023-01-15T07:41:11.730Z,5.53009
2023-01-15T07:44:37.255Z,5.570374
2023-01-15T07:48:02.885Z,5.479736
2023-01-15T07:51:28.166Z,5.459595
2023-01-15T07:54:53.432Z,5.358887
2023-01-15T07:58:25.038Z,5.379028
2023-01-15T08:01:50.948Z,5.379028
2023-01-15T08:05:16.149Z,5.348816
2023-01-15T08:08:41.847Z,5.328674
2023-01-15T08:12:07.157Z,5.389099
2023-01-15T08:15:33.791Z,5.358887
2023-01-15T08:18:59.549Z,5.389099
2023-01-15T08:22:25.048Z,5.308533
2023-01-15T08:25:51.736Z,5.207825
2023-01-15T08:29:17.266Z,5.02655
2023-01-15T08:32:42.523Z,4.835205
2023-01-15T08:36:07.778Z,4.734497
2023-01-15T08:39:33.054Z,4.784851
2023-01-15T08:42:58.344Z,4.804993
2023-01-15T08:46:23.650Z,4.734497
2023-01-15T08:49:49.455Z,4.583435
2023-01-15T08:53:29.606Z,4.502869
2023-01-15T08:56:59.701Z,4.512939
2023-01-15T09:00:25.491Z,4.653931
2023-01-15T09:03:50.827Z,4.633789
2023-01-15T09:07:18.011Z,4.502869
2023-01-15T09:10:43.270Z,4.452515
2023-01-15T09:14:08.559Z,4.52301
2023-01-15T09:17:33.845Z,4.583435
2023-01-15T09:20:59.121Z,4.593506
2023-01-15T09:24:24.383Z,4.553223
2023-01-15T09:27:49.726Z,4.52301
2023-01-15T09:31:15.061Z,4.442444
2023-01-15T09:34:40.312Z,4.502869
2023-01-15T09:38:05.577Z,4.543152
2023-01-15T09:41:30.882Z,4.512939
2023-01-15T09:44:56.356Z,4.482727
2023-01-15T09:48:21.669Z,4.543152
2023-01-15T09:51:47.035Z,4.553223
2023-01-15T09:55:14.545Z,4.674072
2023-01-15T09:58:39.797Z,4.653931
2023-01-15T10:02:05.032Z,4.704285
2023-01-15T10:05:30.275Z,4.704285
2023-01-15T10:08:55.534Z,4.734497
2023-01-15T10:12:21.110Z,4.694214
2023-01-15T10:15:46.524Z,4.653931
2023-01-15T10:19:11.704Z,4.603577
2023-01-15T10:22:36.956Z,4.52301
2023-01-15T10:26:02.216Z,4.472656
2023-01-15T10:29:27.489Z,4.442444
2023-01-15T10:33:01.833Z,4.472656
2023-01-15T10:36:18.330Z,4.472656
2023-01-15T10:39:43.822Z,4.442444
2023-01-15T10:43:09.407Z,4.371948
2023-01-15T10:46:34.677Z,4.422302
2023-01-15T10:50:00.104Z,4.452515
2023-01-15T10:53:25.398Z,4.472656
2023-01-15T10:56:50.711Z,4.422302
2023-01-15T11:00:15.976Z,4.422302
2023-01-15T11:03:41.191Z,4.291382
2023-01-15T11:07:06.438Z,4.160461
2023-01-15T11:10:32.171Z,4.230957
2023-01-15T11:13:57.419Z,4.27124
2023-01-15T11:17:22.663Z,4.27124
2023-01-15T11:20:48.050Z,4.291382
2023-01-15T11:24:13.403Z,4.241028
2023-01-15T11:27:38.697Z,4.27124
2023-01-15T11:31:04.298Z,4.241028
2023-01-15T11:34:29.603Z,4.180603
2023-01-15T11:37:54.910Z,4.220886
2023-01-15T11:41:20.220Z,4.261169
2023-01-15T11:44:45.571Z,4.180603
2023-01-15T11:48:10.853Z,4.150391
2023-01-15T11:51:36.117Z,4.089966
2023-01-15T11:55:01.378Z,3.878479
2023-01-15T11:58:26.671Z,3.938904
2023-01-15T12:01:51.935Z,4.01947
2023-01-15T12:05:17.183Z,3.938904
2023-01-15T12:08:42.412Z,3.878479
2023-01-15T12:12:07.680Z,3.797913
2023-01-15T12:15:32.933Z,3.858337
2023-01-15T12:18:58.243Z,3.858337
2023-01-15T12:22:23.544Z,3.928833
2023-01-15T12:25:48.801Z,4.089966
2023-01-15T12:29:14.035Z,3.878479
2023-01-15T12:32:39.284Z,3.858337
2023-01-15T12:36:04.525Z,3.858337
2023-01-15T12:39:29.768Z,3.727417
2023-01-15T12:42:55.004Z,3.697205
2023-01-15T12:46:20.471Z,3.757629
2023-01-15T12:49:45.716Z,3.677063
2023-01-15T12:53:10.954Z,3.687134
2023-01-15T12:56:36.197Z,3.646851
2023-01-15T13:00:01.454Z,3.536072
2023-01-15T13:03:26.700Z,3.495789
2023-01-15T13:06:51.931Z,3.505859
2023-01-15T13:10:17.183Z,3.51593
2023-01-15T13:13:42.414Z,3.445435
2023-01-15T13:17:07.653Z,3.354797
2023-01-15T13:20:32.897Z,3.294373
2023-01-15T13:23:58.134Z,3.213806
2023-01-15T13:27:23.368Z,3.203735
2023-01-15T13:30:48.611Z,3.213806
2023-01-15T13:34:13.851Z,3.233948
2023-01-15T13:37:39.083Z,3.26416
2023-01-15T13:41:04.332Z,3.314514
2023-01-15T13:44:29.555Z,3.334656
2023-01-15T13:47:54.789Z,3.213806
2023-01-15T13:51:20.047Z,3.153381
2023-01-15T13:54:45.319Z,3.173523
2023-01-15T13:58:10.547Z,3.062744
2023-01-15T14:01:35.865Z,3.062744
2023-01-15T14:05:01.043Z,3.143311
2023-01-15T14:08:26.285Z,3.062744
2023-01-15T14:11:51.556Z,3.022461
2023-01-15T14:15:16.793Z,3.13324
2023-01-15T14:18:42.013Z,3.183594
2023-01-15T14:22:07.255Z,3.284302
2023-01-15T14:25:32.512Z,3.294373
2023-01-15T14:28:57.770Z,3.213806
2023-01-15T15:05:14.492Z,2.851257
2023-01-15T15:08:39.709Z,2.821045
2023-01-15T15:12:04.940Z,2.710266
2023-01-15T15:15:30.206Z,2.750549
2023-01-15T15:18:55.438Z,2.720337
2023-01-15T15:22:20.675Z,2.659912
2023-01-15T15:25:45.925Z,2.720337
2023-01-15T15:29:11.157Z,2.639771
2023-01-15T15:32:36.399Z,2.639771
2023-01-15T15:36:01.637Z,2.720337
2023-01-15T15:39:26.867Z,2.690125
2023-01-15T15:42:52.104Z,2.770691
2023-01-15T15:46:17.414Z,2.750549
2023-01-15T15:49:42.612Z,2.841187
2023-01-15T15:53:07.857Z,2.810974
2023-01-15T15:56:33.101Z,2.770691
2023-01-15T15:59:58.329Z,2.931824
2023-01-15T16:03:23.575Z,2.962036
2023-01-15T16:06:48.827Z,2.901611
2023-01-15T16:10:14.070Z,2.851257
2023-01-15T16:13:39.312Z,2.810974
2023-01-15T16:17:04.552Z,2.750549
2023-01-15T16:20:29.809Z,2.770691
2023-01-15T16:23:55.090Z,2.780762
2023-01-15T16:27:20.321Z,2.710266
2023-01-15T16:30:45.589Z,2.770691
2023-01-15T16:34:10.792Z,2.790833
2023-01-15T16:37:36.072Z,2.790833
2023-01-15T16:41:01.296Z,2.780762
2023-01-15T16:44:26.532Z,2.780762
2023-01-15T16:47:51.791Z,2.770691
2023-01-15T16:51:17.017Z,2.740479
2023-01-15T16:54:42.309Z,2.821045
2023-01-15T16:58:07.540Z,2.690125
2023-01-15T17:01:32.840Z,2.780762
2023-01-15T17:04:58.012Z,2.810974
2023-01-15T17:08:23.247Z,2.931824
2023-01-15T17:11:48.502Z,2.921753
2023-01-15T17:15:13.722Z,2.891541
2023-01-15T17:18:38.989Z,2.810974
2023-01-15T17:22:04.259Z,2.750549
2023-01-15T17:25:29.534Z,2.821045
2023-01-15T17:28:54.832Z,2.841187
2023-01-15T17:32:20.151Z,2.770691
2023-01-15T17:35:45.454Z,2.750549
2023-01-15T17:39:10.744Z,2.770691
2023-01-15T17:42:36.041Z,2.750549
2023-01-15T17:46:01.471Z,2.790833
2023-01-15T17:49:26.806Z,3.022461
2023-01-15T17:52:52.130Z,3.113098
2023-01-15T17:56:17.394Z,3.143311
2023-01-15T17:59:42.733Z,2.962036
2023-01-15T18:03:08.118Z,2.871399
2023-01-15T18:06:33.331Z,2.951965
2023-01-15T18:09:58.607Z,2.921753
2023-01-15T18:13:23.902Z,2.901611
2023-01-15T18:16:49.212Z,2.951965
2023-01-15T18:20:14.473Z,3.022461
2023-01-15T18:23:39.827Z,2.992249
2023-01-15T18:27:05.089Z,3.062744
2023-01-15T18:30:30.411Z,3.062744
2023-01-15T18:33:55.672Z,2.951965
2023-01-15T18:37:20.970Z,2.962036
2023-01-15T18:40:46.292Z,2.951965
2023-01-15T18:44:11.590Z,2.951965
2023-01-15T18:47:36.917Z,2.921753
2023-01-15T18:51:02.207Z,2.992249
2023-01-15T18:54:27.467Z,2.992249
2023-01-15T18:57:52.734Z,2.921753
2023-01-15T19:01:21.852Z,2.972107
2023-01-15T19:04:47.157Z,2.871399
2023-01-15T19:08:12.437Z,2.871399
2023-01-15T19:11:37.786Z,2.810974
2023-01-15T19:15:03.109Z,2.740479
2023-01-15T19:18:28.432Z,2.770691
2023-01-15T19:21:53.696Z,2.851257
2023-01-15T19:25:18.942Z,2.851257
2023-01-15T19:28:44.255Z,2.972107
2023-01-15T19:32:09.595Z,2.931824
2023-01-15T19:35:34.866Z,2.921753
2023-01-15T19:39:00.195Z,2.962036
2023-01-15T19:42:25.523Z,2.891541
2023-01-15T19:45:50.843Z,3.052673
2023-01-15T19:49:16.155Z,3.002319
2023-01-15T19:52:41.447Z,3.062744
2023-01-15T19:56:06.773Z,3.103027
2023-01-15T19:59:32.055Z,3.032532
2023-01-15T20:02:57.406Z,2.972107
2023-01-15T20:06:22.664Z,3.002319
2023-01-15T20:09:47.947Z,3.062744
2023-01-15T20:13:13.229Z,3.062744
2023-01-15T20:16:38.540Z,3.032532
2023-01-15T20:20:03.804Z,2.901611
2023-01-15T20:23:29.099Z,2.841187
2023-01-15T20:26:56.083Z,2.851257
2023-01-15T20:30:21.384Z,2.780762
2023-01-15T20:33:46.717Z,2.810974
2023-01-15T20:37:12.006Z,2.851257
2023-01-15T20:40:37.276Z,3.032532
2023-01-15T20:44:02.549Z,3.002319
2023-01-15T20:47:27.809Z,2.972107
2023-01-15T20:50:53.095Z,2.972107
2023-01-15T20:54:18.389Z,3.002319
2023-01-15T20:57:43.669Z,2.962036
2023-01-15T21:01:09.077Z,2.951965
2023-01-15T21:04:34.294Z,2.972107
2023-01-15T21:07:59.458Z,3.032532
2023-01-15T21:11:24.698Z,2.871399
2023-01-15T21:14:49.950Z,2.841187
2023-01-15T21:18:15.258Z,2.841187
2023-01-15T21:21:40.543Z,2.770691
2023-01-15T21:25:05.815Z,2.690125
2023-01-15T21:28:31.057Z,2.518921
2023-01-15T21:31:56.304Z,2.518921
2023-01-15T21:35:21.575Z,2.599487
2023-01-15T21:38:46.851Z,2.720337
2023-01-15T21:42:12.082Z,2.770691
2023-01-15T21:45:37.343Z,2.770691
2023-01-15T21:49:02.601Z,2.821045
2023-01-15T21:52:27.880Z,2.780762
2023-01-15T21:55:53.184Z,2.871399
2023-01-15T21:59:20.129Z,2.821045
2023-01-15T22:02:43.860Z,2.821045
2023-01-15T22:06:08.989Z,2.710266
2023-01-15T22:09:34.250Z,2.810974
2023-01-15T22:12:59.505Z,2.851257
2023-01-15T22:16:24.789Z,2.951965
2023-01-15T22:19:50.020Z,3.032532
2023-01-15T22:23:15.280Z,3.052673
2023-01-15T22:26:40.535Z,2.901611
2023-01-15T22:30:05.792Z,2.972107
2023-01-15T22:33:31.070Z,3.082886
2023-01-15T22:36:56.387Z,3.062744
2023-01-15T22:40:21.659Z,3.032532
2023-01-15T22:43:46.924Z,3.022461
2023-01-15T22:47:12.205Z,3.103027
2023-01-15T22:50:37.449Z,3.203735
2023-01-15T22:54:02.716Z,3.153381
2023-01-15T22:57:27.966Z,3.143311
2023-01-15T23:00:53.252Z,2.992249
2023-01-15T23:04:18.525Z,3.052673
2023-01-15T23:07:43.774Z,3.062744
2023-01-15T23:11:09.043Z,3.032532
2023-01-15T23:14:34.320Z,3.062744
2023-01-15T23:17:59.602Z,3.052673
2023-01-15T23:21:24.852Z,2.972107
2023-01-15T23:24:50.121Z,2.972107
2023-01-15T23:28:15.355Z,2.972107
2023-01-15T23:31:40.654Z,3.002319
2023-01-15T23:35:05.941Z,2.992249
2023-01-15T23:38:31.145Z,2.992249
2023-01-15T23:41:56.441Z,2.921753
2023-01-15T23:45:21.693Z,2.901611
2023-01-15T23:48:46.975Z,2.901611
2023-01-15T23:52:12.286Z,2.931824
2023-01-15T23:55:37.520Z,2.821045
2023-01-15T23:59:02.814Z,2.780762
